Time;durP1;ratioP1;P1;durP2;ratioP2;P2;SDS_P1;SDS_P2;PMS_P1;PMS_P2;Temp;Humidity;BMP_temperature;BMP_pressure;BME280_temperature;BME280_humidity;BME280_pressure;Samples;Min_cycle;Max_cycle;Signal;HPM_P1;HPM_P2
2023/12/25 00:02:00;;;;;;;27.10;15.95;;;19.30;54.00;;;;;;4967209;28;20038;-67
2023/12/25 00:04:26;;;;;;;27.77;16.55;;;19.30;54.20;;;;;;4966956;28;20036;-68
2023/12/25 00:06:51;;;;;;;29.45;18.08;;;19.20;54.40;;;;;;4969241;28;20030;-68
2023/12/25 00:09:19;;;;;;;26.95;15.48;;;19.20;54.50;;;;;;4969804;28;20114;-68
2023/12/25 00:11:44;;;;;;;30.83;16.65;;;19.10;54.70;;;;;;4970309;28;20127;-69
2023/12/25 00:14:10;;;;;;;26.33;15.73;;;19.10;54.80;;;;;;4969576;28;20038;-68
2023/12/25 00:16:35;;;;;;;31.45;17.52;;;19.00;54.90;;;;;;4971047;28;20043;-68
2023/12/25 00:19:01;;;;;;;28.98;16.80;;;19.00;55.60;;;;;;4967968;28;20051;-67
2023/12/25 00:21:26;;;;;;;28.50;16.00;;;18.90;55.20;;;;;;4969620;28;20122;-68
2023/12/25 00:23:53;;;;;;;22.23;14.35;;;18.90;55.20;;;;;;4971187;28;20031;-69
2023/12/25 00:26:18;;;;;;;27.77;15.02;;;18.80;55.30;;;;;;4969722;28;20043;-68
2023/12/25 00:28:43;;;;;;;25.25;15.93;;;18.80;55.40;;;;;;4966045;28;20131;-68
2023/12/25 00:31:09;;;;;;;24.70;15.23;;;18.70;55.40;;;;;;4970433;28;20043;-68
2023/12/25 00:33:34;;;;;;;25.25;15.93;;;18.70;55.50;;;;;;4964106;28;20473;-68
2023/12/25 00:36:00;;;;;;;24.10;14.65;;;18.70;55.60;;;;;;4969815;28;20031;-66
2023/12/25 00:38:25;;;;;;;26.73;15.55;;;18.60;55.60;;;;;;4968494;28;20409;-68
2023/12/25 00:40:51;;;;;;;27.73;16.35;;;18.60;55.70;;;;;;4969045;28;20034;-68
2023/12/25 00:43:16;;;;;;;26.40;15.63;;;18.50;55.80;;;;;;4969413;28;20035;-68
2023/12/25 00:45:42;;;;;;;25.15;14.60;;;18.50;55.90;;;;;;4970026;28;20494;-68
2023/12/25 00:48:07;;;;;;;28.08;15.68;;;18.50;55.90;;;;;;4968876;28;20047;-68
2023/12/25 00:50:33;;;;;;;25.95;15.32;;;18.40;56.00;;;;;;4968098;28;20110;-68
2023/12/25 00:52:58;;;;;;;27.70;15.30;;;18.40;56.00;;;;;;4970276;28;20498;-68
2023/12/25 00:55:24;;;;;;;26.42;15.25;;;18.40;56.10;;;;;;4970257;28;20143;-68
2023/12/25 00:57:49;;;;;;;27.63;14.90;;;18.40;56.20;;;;;;4971416;28;20031;-69
2023/12/25 01:00:15;;;;;;;24.42;14.48;;;18.40;56.30;;;;;;4970722;28;20039;-68
2023/12/25 01:02:40;;;;;;;24.30;13.35;;;18.30;56.30;;;;;;4972053;28;20763;-68
2023/12/25 01:05:06;;;;;;;20.85;13.27;;;18.30;56.30;;;;;;4970084;28;20506;-68
2023/12/25 01:07:31;;;;;;;24.90;14.60;;;18.30;56.30;;;;;;4969092;28;20043;-68
2023/12/25 01:09:57;;;;;;;24.52;14.23;;;18.30;56.40;;;;;;4970401;28;20066;-68
2023/12/25 01:12:22;;;;;;;25.65;14.50;;;18.30;56.50;;;;;;4968591;28;20030;-67
2023/12/25 01:14:48;;;;;;;23.23;13.88;;;18.30;56.50;;;;;;4968134;28;20031;-69
2023/12/25 01:17:13;;;;;;;26.02;14.82;;;18.20;56.50;;;;;;4969192;28;20069;-67
2023/12/25 01:19:39;;;;;;;23.88;13.57;;;18.20;56.50;;;;;;4971694;28;20118;-68
2023/12/25 01:22:04;;;;;;;20.33;12.77;;;18.20;56.50;;;;;;4965556;28;20023;-68
2023/12/25 01:24:30;;;;;;;20.58;12.30;;;18.20;56.50;;;;;;4967619;28;20031;-69
2023/12/25 01:26:55;;;;;;;23.23;14.15;;;18.20;56.60;;;;;;4969523;28;20566;-68
2023/12/25 01:29:21;;;;;;;22.80;13.32;;;18.10;56.50;;;;;;4968387;28;20045;-68
2023/12/25 01:31:46;;;;;;;19.85;12.05;;;18.10;57.20;;;;;;4965403;28;20065;-68
2023/12/25 01:34:12;;;;;;;23.27;12.93;;;18.10;56.60;;;;;;4964969;28;20030;-68
2023/12/25 01:36:38;;;;;;;22.75;13.57;;;18.10;56.60;;;;;;4967497;28;20065;-69
2023/12/25 01:39:04;;;;;;;22.48;13.38;;;18.10;56.60;;;;;;4964145;28;20057;-67
2023/12/25 01:41:29;;;;;;;23.02;12.73;;;18.10;56.70;;;;;;4969364;28;20513;-69
2023/12/25 01:43:55;;;;;;;22.85;13.30;;;18.10;56.80;;;;;;4978468;28;20462;-68
2023/12/25 01:46:22;;;;;;;20.73;12.35;;;18.00;56.80;;;;;;4966580;28;20406;-68
2023/12/25 01:48:50;;;;;;;22.88;13.52;;;18.00;56.80;;;;;;4971027;28;20034;-68
2023/12/25 01:51:21;;;;;;;22.15;13.30;;;18.00;56.90;;;;;;4967211;28;20066;-67
2023/12/25 01:53:47;;;;;;;23.40;12.90;;;18.00;56.90;;;;;;4964916;28;20038;-68
2023/12/25 01:56:12;;;;;;;19.67;12.63;;;18.00;56.80;;;;;;4969348;28;20035;-68
2023/12/25 01:58:38;;;;;;;20.67;13.13;;;18.00;56.80;;;;;;4967346;28;20042;-68
2023/12/25 02:01:03;;;;;;;20.70;12.07;;;18.00;56.90;;;;;;4965823;28;20035;-67
2023/12/25 02:03:29;;;;;;;18.45;11.48;;;18.00;57.00;;;;;;4954847;28;20420;-69
2023/12/25 02:05:55;;;;;;;22.40;12.23;;;17.90;57.00;;;;;;4963813;28;20121;-68
2023/12/25 02:08:22;;;;;;;19.10;11.52;;;17.90;57.10;;;;;;4964602;28;20074;-68
2023/12/25 02:10:47;;;;;;;20.67;11.52;;;17.90;57.10;;;;;;4965450;28;20027;-68
2023/12/25 02:13:13;;;;;;;18.33;11.35;;;17.90;57.10;;;;;;4963029;28;20449;-67
2023/12/25 02:15:39;;;;;;;19.05;11.63;;;17.90;57.10;;;;;;4965928;28;20053;-68
2023/12/25 02:18:05;;;;;;;17.25;11.15;;;17.80;57.00;;;;;;4963618;28;20118;-68
2023/12/25 02:20:32;;;;;;;18.02;10.90;;;17.80;57.00;;;;;;4967075;28;20173;-70
2023/12/25 02:22:59;;;;;;;25.90;12.45;;;17.80;57.00;;;;;;4961938;28;20035;-68
2023/12/25 02:25:32;;;;;;;17.17;10.68;;;17.80;57.10;;;;;;4968987;28;20027;-68
2023/12/25 02:27:59;;;;;;;20.63;11.45;;;17.80;57.10;;;;;;4963374;28;20057;-68
2023/12/25 02:30:25;;;;;;;18.75;11.77;;;17.80;57.00;;;;;;4967175;28;20034;-67
2023/12/25 02:32:50;;;;;;;15.40;9.93;;;17.80;57.00;;;;;;4967462;28;20082;-68
2023/12/25 02:35:16;;;;;;;16.13;10.05;;;17.80;57.10;;;;;;4964725;28;20039;-68
2023/12/25 02:37:42;;;;;;;15.07;9.60;;;17.80;57.80;;;;;;4963448;28;20657;-68
2023/12/25 02:40:08;;;;;;;15.40;9.60;;;17.80;57.10;;;;;;4960654;28;20461;-68
2023/12/25 02:42:33;;;;;;;15.15;9.75;;;17.80;57.10;;;;;;4966541;28;20518;-68
2023/12/25 02:44:59;;;;;;;19.20;10.90;;;17.80;57.10;;;;;;4963487;28;20548;-68
2023/12/25 02:47:24;;;;;;;15.75;10.15;;;17.70;57.10;;;;;;4968865;28;20516;-68
2023/12/25 02:49:50;;;;;;;14.57;9.20;;;17.70;57.10;;;;;;4966370;28;20037;-68
2023/12/25 02:52:15;;;;;;;17.80;10.00;;;17.70;57.10;;;;;;4966527;28;20043;-68
2023/12/25 02:54:41;;;;;;;18.88;10.48;;;17.70;57.00;;;;;;4968879;28;20046;-70
2023/12/25 02:57:06;;;;;;;15.10;9.20;;;17.70;57.00;;;;;;4968246;28;20038;-68
2023/12/25 02:59:32;;;;;;;16.70;9.60;;;17.70;57.00;;;;;;4968662;28;20124;-67
2023/12/25 03:01:58;;;;;;;15.43;9.45;;;17.70;57.10;;;;;;4959046;28;20065;-69
2023/12/25 03:04:23;;;;;;;13.25;8.98;;;17.70;57.10;;;;;;4963006;28;20042;-68
2023/12/25 03:06:49;;;;;;;16.60;9.85;;;17.70;57.20;;;;;;4962948;28;20046;-68
2023/12/25 03:09:14;;;;;;;15.82;9.40;;;17.70;57.10;;;;;;4961151;28;20035;-69
2023/12/25 03:11:40;;;;;;;13.98;9.35;;;17.60;57.00;;;;;;4967286;28;20035;-68
2023/12/25 03:14:05;;;;;;;16.33;9.35;;;17.70;57.70;;;;;;4964605;28;20113;-67
2023/12/25 03:16:31;;;;;;;15.13;9.85;;;17.60;57.00;;;;;;4964216;28;20618;-68
2023/12/25 03:18:56;;;;;;;15.05;8.77;;;17.60;57.00;;;;;;4967202;28;20037;-68
2023/12/25 03:21:22;;;;;;;16.70;10.10;;;17.60;57.00;;;;;;4960378;28;20035;-68
2023/12/25 03:23:47;;;;;;;14.18;9.13;;;17.60;57.20;;;;;;4967249;28;20031;-68
2023/12/25 03:26:13;;;;;;;16.50;9.45;;;17.70;57.00;;;;;;4961250;28;20039;-69
2023/12/25 03:28:39;;;;;;;12.63;8.93;;;17.70;56.90;;;;;;4970725;28;20027;-68
2023/12/25 03:31:04;;;;;;;14.07;8.63;;;17.90;56.60;;;;;;4967898;28;20030;-69
2023/12/25 03:33:30;;;;;;;13.20;7.78;;;18.10;56.30;;;;;;4968340;28;20030;-68
2023/12/25 03:35:55;;;;;;;14.50;9.10;;;18.30;55.90;;;;;;4969017;28;20039;-69
2023/12/25 03:38:21;;;;;;;13.50;8.40;;;18.60;55.30;;;;;;4968642;28;20031;-69
2023/12/25 03:40:46;;;;;;;11.40;7.53;;;18.80;54.80;;;;;;4968661;28;20027;-68
2023/12/25 03:43:12;;;;;;;12.25;7.82;;;19.00;54.40;;;;;;4962613;28;20063;-68
2023/12/25 03:45:37;;;;;;;13.25;8.60;;;19.20;54.00;;;;;;4966498;28;20589;-69
2023/12/25 03:48:03;;;;;;;12.32;7.93;;;19.40;53.50;;;;;;4967862;28;20057;-68
2023/12/25 03:50:29;;;;;;;12.82;7.68;;;19.60;53.30;;;;;;4968401;28;20038;-69
2023/12/25 03:52:54;;;;;;;10.73;6.95;;;19.60;53.00;;;;;;4968916;28;20122;-69
2023/12/25 03:55:20;;;;;;;10.40;7.07;;;19.80;52.80;;;;;;4967002;28;20130;-69
2023/12/25 03:57:45;;;;;;;10.73;7.15;;;19.90;52.70;;;;;;4967125;28;20565;-69
2023/12/25 04:00:11;;;;;;;10.90;6.63;;;19.90;52.60;;;;;;4962611;28;20494;-68
2023/12/25 04:02:37;;;;;;;12.32;7.75;;;20.00;52.60;;;;;;4961705;28;20046;-69
2023/12/25 04:05:02;;;;;;;12.00;7.72;;;19.90;52.70;;;;;;4965345;28;20041;-68
2023/12/25 04:07:28;;;;;;;10.15;6.68;;;19.90;52.80;;;;;;4964257;28;20026;-67
2023/12/25 04:09:53;;;;;;;11.90;7.55;;;19.80;52.90;;;;;;4983245;28;20383;-69
2023/12/25 04:12:19;;;;;;;11.60;7.18;;;19.80;53.00;;;;;;4966090;28;20031;-68
2023/12/25 04:14:45;;;;;;;9.38;6.35;;;19.70;53.20;;;;;;4968228;28;20047;-69
2023/12/25 04:17:10;;;;;;;9.90;6.65;;;19.70;53.90;;;;;;4968584;28;20133;-68
2023/12/25 04:19:36;;;;;;;10.27;6.30;;;19.60;53.40;;;;;;4971516;28;20082;-68
2023/12/25 04:22:01;;;;;;;11.50;6.95;;;19.50;53.60;;;;;;4968910;28;20027;-69
2023/12/25 04:24:27;;;;;;;9.55;6.32;;;19.40;53.70;;;;;;4977781;28;20510;-69
2023/12/25 04:26:52;;;;;;;8.85;5.97;;;19.40;53.90;;;;;;4972157;28;20035;-69
2023/12/25 04:29:18;;;;;;;10.40;6.63;;;19.30;54.00;;;;;;4968147;28;20441;-68
2023/12/25 04:31:43;;;;;;;10.07;6.80;;;19.20;54.10;;;;;;4971973;28;20031;-69
2023/12/25 04:34:09;;;;;;;9.77;5.85;;;19.20;54.20;;;;;;4969220;28;20059;-68
2023/12/25 04:36:34;;;;;;;8.25;5.47;;;19.20;54.50;;;;;;4974952;28;20564;-68
2023/12/25 04:39:01;;;;;;;9.75;5.80;;;19.10;54.60;;;;;;4975431;28;20113;-69
2023/12/25 04:41:27;;;;;;;9.48;6.00;;;19.10;54.80;;;;;;4968922;28;21456;-69
2023/12/25 04:43:53;;;;;;;8.82;6.03;;;19.00;54.90;;;;;;4971469;28;20035;-69
2023/12/25 04:46:19;;;;;;;9.82;5.90;;;19.00;54.90;;;;;;4968600;28;20035;-68
2023/12/25 04:48:45;;;;;;;9.13;5.93;;;18.90;55.10;;;;;;4963930;28;20070;-69
2023/12/25 04:51:11;;;;;;;12.65;7.00;;;18.90;55.20;;;;;;4970101;28;20035;-68
2023/12/25 04:53:36;;;;;;;9.30;6.15;;;18.80;55.30;;;;;;4971565;28;20092;-68
2023/12/25 04:56:03;;;;;;;9.00;6.18;;;18.80;55.30;;;;;;4972000;28;20070;-68
2023/12/25 04:58:28;;;;;;;10.27;5.85;;;18.70;55.40;;;;;;4974442;28;20034;-69
2023/12/25 05:00:54;;;;;;;8.32;5.35;;;18.70;55.40;;;;;;4971929;28;20070;-68
2023/12/25 05:03:21;;;;;;;8.15;5.70;;;18.70;55.50;;;;;;4974584;28;20045;-68
2023/12/25 05:05:47;;;;;;;8.35;5.55;;;18.60;55.50;;;;;;4971630;28;20035;-69
2023/12/25 05:08:12;;;;;;;7.85;5.32;;;18.60;55.60;;;;;;4962879;28;20736;-69
2023/12/25 05:10:37;;;;;;;8.27;5.53;;;18.60;55.60;;;;;;4971747;28;20106;-68
2023/12/25 05:13:03;;;;;;;8.98;5.90;;;18.60;55.80;;;;;;4966424;28;20047;-68
2023/12/25 05:15:28;;;;;;;7.88;5.38;;;18.50;55.80;;;;;;4970965;28;20082;-68
2023/12/25 05:17:54;;;;;;;8.00;5.25;;;18.50;55.90;;;;;;4965444;28;21144;-69
2023/12/25 05:20:19;;;;;;;8.27;5.18;;;18.40;56.00;;;;;;4973142;28;20035;-68
2023/12/25 05:22:45;;;;;;;6.90;5.30;;;18.40;56.00;;;;;;4973513;28;20041;-69
2023/12/25 05:25:10;;;;;;;6.95;5.18;;;18.40;56.10;;;;;;4976703;28;20026;-68
2023/12/25 05:27:36;;;;;;;7.40;5.00;;;18.40;56.10;;;;;;4974800;28;20027;-66
2023/12/25 05:30:01;;;;;;;8.45;5.10;;;18.30;56.20;;;;;;4963889;28;20114;-69
2023/12/25 05:32:28;;;;;;;7.05;4.55;;;18.30;56.20;;;;;;4965050;28;20457;-68
2023/12/25 05:34:54;;;;;;;7.05;5.07;;;18.30;56.20;;;;;;4968721;28;20026;-68
2023/12/25 05:37:20;;;;;;;7.90;5.82;;;18.30;56.30;;;;;;4970593;28;20097;-68
2023/12/25 05:39:45;;;;;;;5.50;4.45;;;18.30;56.30;;;;;;4971338;28;20701;-69
2023/12/25 05:42:11;;;;;;;7.30;4.57;;;18.30;56.30;;;;;;4968468;28;20104;-68
2023/12/25 05:44:36;;;;;;;7.50;4.28;;;18.30;56.30;;;;;;4974575;28;20371;-70
2023/12/25 05:47:02;;;;;;;7.32;4.55;;;18.20;56.30;;;;;;4970967;28;20047;-68
2023/12/25 05:49:29;;;;;;;5.53;4.20;;;18.20;56.40;;;;;;4967928;28;20039;-69
2023/12/25 05:51:54;;;;;;;5.78;3.80;;;18.20;56.40;;;;;;4967548;28;20518;-68
2023/12/25 05:54:20;;;;;;;6.63;4.78;;;18.20;56.40;;;;;;4971350;28;20038;-68
2023/12/25 05:56:45;;;;;;;8.82;4.90;;;18.20;56.50;;;;;;4968021;28;20272;-69
2023/12/25 05:59:11;;;;;;;6.97;4.75;;;18.20;56.50;;;;;;4968357;28;20031;-68
2023/12/25 06:01:36;;;;;;;6.95;4.22;;;18.20;56.50;;;;;;4967625;28;20097;-69
2023/12/25 06:04:02;;;;;;;5.45;3.63;;;18.10;56.50;;;;;;4970518;28;20030;-68
2023/12/25 06:06:28;;;;;;;7.35;4.50;;;18.10;56.40;;;;;;4973617;28;20089;-68
2023/12/25 06:08:53;;;;;;;6.35;3.88;;;18.10;56.50;;;;;;4971375;28;20026;-68
2023/12/25 06:11:19;;;;;;;7.22;4.32;;;18.10;56.50;;;;;;4970635;28;20409;-68
2023/12/25 06:13:44;;;;;;;5.38;3.92;;;18.10;56.60;;;;;;4969588;28;20042;-68
2023/12/25 06:16:10;;;;;;;5.68;3.80;;;18.10;56.60;;;;;;4964649;28;20065;-67
2023/12/25 06:18:35;;;;;;;7.00;4.00;;;18.10;56.50;;;;;;4968476;28;20528;-69
2023/12/25 06:21:00;;;;;;;5.88;4.22;;;18.00;56.50;;;;;;4967147;28;20039;-68
2023/12/25 06:23:26;;;;;;;6.70;4.13;;;18.00;56.70;;;;;;4966166;28;20067;-68
2023/12/25 06:25:52;;;;;;;5.35;3.85;;;18.00;56.80;;;;;;4966939;28;20371;-68
2023/12/25 06:28:17;;;;;;;5.50;3.63;;;18.00;56.90;;;;;;4971188;28;20035;-68
2023/12/25 06:30:43;;;;;;;6.55;4.03;;;18.00;56.90;;;;;;4969921;28;20030;-69
2023/12/25 06:33:09;;;;;;;5.10;3.08;;;18.00;56.90;;;;;;4969900;28;20504;-67
2023/12/25 06:35:34;;;;;;;7.35;3.92;;;18.00;57.00;;;;;;4968333;28;20106;-69
2023/12/25 06:38:00;;;;;;;4.78;3.47;;;17.90;57.00;;;;;;4967997;28;20026;-67
2023/12/25 06:40:25;;;;;;;5.15;3.55;;;18.00;57.00;;;;;;4966178;28;20042;-67
2023/12/25 06:42:51;;;;;;;7.75;3.83;;;18.00;57.10;;;;;;4966039;28;20316;-68
2023/12/25 06:45:17;;;;;;;5.38;3.58;;;17.90;57.00;;;;;;4969231;28;20043;-68
2023/12/25 06:47:42;;;;;;;5.60;3.30;;;17.90;57.10;;;;;;4967648;28;20541;-68
2023/12/25 06:50:08;;;;;;;5.70;3.53;;;17.90;57.20;;;;;;4961703;28;20115;-68
2023/12/25 06:52:33;;;;;;;8.13;3.25;;;17.90;57.10;;;;;;4974840;28;20037;-68
2023/12/25 06:54:59;;;;;;;4.95;3.20;;;17.90;57.10;;;;;;4970616;28;20075;-67
2023/12/25 06:57:24;;;;;;;4.65;2.90;;;17.90;57.40;;;;;;4961284;28;20035;-69
2023/12/25 06:59:50;;;;;;;5.47;3.17;;;17.90;57.60;;;;;;4970094;28;20541;-67
2023/12/25 07:02:15;;;;;;;5.10;2.83;;;17.90;57.60;;;;;;4967028;28;20092;-67
2023/12/25 07:04:42;;;;;;;6.32;2.83;;;17.80;57.40;;;;;;4963859;28;20043;-67
2023/12/25 07:07:09;;;;;;;7.45;3.75;;;17.90;57.90;;;;;;4969176;28;20554;-66
2023/12/25 07:09:35;;;;;;;6.78;3.33;;;17.90;57.70;;;;;;4985682;28;20034;-68
2023/12/25 07:12:00;;;;;;;6.72;3.40;;;17.90;57.70;;;;;;4965670;28;20043;-67
2023/12/25 07:14:26;;;;;;;9.95;3.22;;;17.90;57.70;;;;;;4964141;28;20131;-67
2023/12/25 07:16:51;;;;;;;5.43;3.30;;;17.80;57.80;;;;;;4969383;28;20125;-68
2023/12/25 07:19:18;;;;;;;6.45;3.20;;;17.80;57.80;;;;;;4966082;28;20046;-67
2023/12/25 07:21:44;;;;;;;4.85;3.50;;;17.90;58.20;;;;;;4966564;28;20031;-67
2023/12/25 07:24:09;;;;;;;6.43;3.22;;;17.80;57.90;;;;;;4965456;28;20127;-66
2023/12/25 07:26:35;;;;;;;6.47;3.22;;;17.80;58.10;;;;;;4968881;28;20671;-66
2023/12/25 07:29:00;;;;;;;6.22;3.40;;;17.80;58.00;;;;;;4976464;28;20030;-67
2023/12/25 07:31:25;;;;;;;4.53;2.92;;;17.80;58.10;;;;;;4970613;28;20122;-67
2023/12/25 07:33:51;;;;;;;7.30;3.78;;;17.80;58.10;;;;;;4965301;28;20050;-65
2023/12/25 07:36:17;;;;;;;5.32;3.28;;;17.80;58.20;;;;;;4971354;28;20045;-66
2023/12/25 07:38:42;;;;;;;5.45;3.05;;;17.80;58.40;;;;;;4970243;28;20226;-65
2023/12/25 07:41:09;;;;;;;6.40;3.50;;;17.80;58.20;;;;;;4965347;28;20110;-65
2023/12/25 07:43:35;;;;;;;5.32;3.30;;;17.80;58.50;;;;;;4975903;28;20034;-66
2023/12/25 07:46:04;;;;;;;6.63;3.90;;;17.80;58.80;;;;;;4975259;28;20469;-65
2023/12/25 07:48:30;;;;;;;8.35;5.07;;;17.80;58.30;;;;;;4968779;28;20042;-66
2023/12/25 07:50:55;;;;;;;14.85;6.88;;;17.80;58.50;;;;;;4968925;28;20513;-66
2023/12/25 07:53:20;;;;;;;18.00;8.73;;;17.80;58.80;;;;;;4968740;28;20031;-65
2023/12/25 07:55:46;;;;;;;17.75;8.88;;;17.80;58.80;;;;;;4974332;28;20585;-66
2023/12/25 07:58:13;;;;;;;24.58;11.60;;;17.80;58.80;;;;;;4968827;28;20134;-65
2023/12/25 08:00:39;;;;;;;24.20;12.25;;;17.80;58.60;;;;;;4968755;28;20034;-66
2023/12/25 08:03:05;;;;;;;31.77;14.50;;;17.80;58.90;;;;;;4975197;28;20038;-66
2023/12/25 08:05:30;;;;;;;28.42;15.38;;;17.80;59.20;;;;;;4968611;28;20057;-65
2023/12/25 08:07:55;;;;;;;30.20;14.75;;;17.80;59.30;;;;;;4967862;28;20031;-66
2023/12/25 08:10:21;;;;;;;33.50;17.02;;;17.80;59.20;;;;;;4968622;28;20458;-65
2023/12/25 08:12:46;;;;;;;33.90;18.25;;;17.80;59.10;;;;;;4987918;28;20034;-66
2023/12/25 08:15:14;;;;;;;37.33;18.83;;;17.70;59.70;;;;;;4969047;28;20109;-63
2023/12/25 08:17:40;;;;;;;35.13;19.40;;;17.80;59.80;;;;;;4979585;28;20109;-65
2023/12/25 08:20:06;;;;;;;42.13;19.45;;;17.70;59.20;;;;;;4969541;28;20122;-65
2023/12/25 08:22:32;;;;;;;40.40;23.05;;;17.80;60.10;;;;;;4965204;28;20046;-66
2023/12/25 08:24:59;;;;;;;37.25;20.73;;;17.70;59.90;;;;;;4973620;28;20114;-65
2023/12/25 08:27:24;;;;;;;32.90;20.70;;;17.80;59.50;;;;;;4965139;28;20034;-65
2023/12/25 08:29:50;;;;;;;45.38;21.50;;;17.70;59.60;;;;;;4974874;28;20027;-66
2023/12/25 08:32:15;;;;;;;49.08;23.83;;;17.70;60.60;;;;;;4975832;28;20023;-67
2023/12/25 08:34:41;;;;;;;42.65;24.10;;;17.80;59.90;;;;;;4976752;28;20116;-68
2023/12/25 08:37:07;;;;;;;44.88;26.10;;;17.70;59.70;;;;;;4970507;28;20093;-67
2023/12/25 08:39:33;;;;;;;41.75;24.92;;;17.70;60.00;;;;;;4975586;28;20494;-66
2023/12/25 08:42:00;;;;;;;46.08;24.75;;;17.70;60.00;;;;;;4979311;28;20061;-67
2023/12/25 08:44:27;;;;;;;44.55;25.15;;;17.70;60.80;;;;;;4979069;28;20026;-65
2023/12/25 08:46:52;;;;;;;42.78;25.52;;;17.80;60.30;;;;;;4968305;28;20038;-65
2023/12/25 08:49:18;;;;;;;45.10;26.25;;;17.80;60.50;;;;;;4972704;28;20042;-65
2023/12/25 08:51:43;;;;;;;42.83;25.45;;;17.70;60.40;;;;;;4965600;28;20031;-65
2023/12/25 08:54:09;;;;;;;47.97;25.90;;;17.80;60.80;;;;;;4978726;28;20041;-65
2023/12/25 08:56:35;;;;;;;48.70;27.20;;;17.70;60.50;;;;;;4965023;28;20553;-65
2023/12/25 08:59:00;;;;;;;49.38;27.45;;;17.80;61.20;;;;;;4973816;28;20026;-65
2023/12/25 09:01:26;;;;;;;50.40;27.88;;;17.70;60.80;;;;;;4965937;28;20437;-65
2023/12/25 09:03:51;;;;;;;47.17;26.73;;;17.80;64.10;;;;;;4979235;28;20031;-64
2023/12/25 09:06:17;;;;;;;47.20;28.10;;;17.80;62.50;;;;;;4968034;28;20031;-64
2023/12/25 09:08:42;;;;;;;57.35;30.17;;;17.90;62.60;;;;;;4979553;28;20058;-64
2023/12/25 09:11:09;;;;;;;51.10;28.65;;;18.00;65.40;;;;;;4966642;28;20069;-66
2023/12/25 09:13:35;;;;;;;49.83;27.95;;;18.20;65.60;;;;;;4976719;28;20096;-65
2023/12/25 09:16:01;;;;;;;48.20;27.77;;;18.50;65.70;;;;;;4970009;28;20031;-64
2023/12/25 09:18:27;;;;;;;50.97;28.95;;;18.60;64.30;;;;;;4969943;28;20045;-66
2023/12/25 09:20:52;;;;;;;44.33;26.42;;;18.80;62.40;;;;;;4968349;28;20031;-66
2023/12/25 09:23:18;;;;;;;46.30;27.00;;;19.00;61.10;;;;;;4973927;28;20545;-66
2023/12/25 09:25:44;;;;;;;43.17;26.30;;;19.20;60.30;;;;;;4974527;28;20027;-68
2023/12/25 09:28:09;;;;;;;43.92;24.98;;;19.40;59.60;;;;;;4974994;28;20035;-68
2023/12/25 09:30:35;;;;;;;40.53;23.42;;;19.60;58.90;;;;;;4972537;28;20125;-67
2023/12/25 09:33:00;;;;;;;38.58;23.25;;;19.70;58.20;;;;;;4970568;28;20031;-66
2023/12/25 09:35:26;;;;;;;34.78;22.17;;;19.80;57.90;;;;;;4969205;28;20035;-66
2023/12/25 09:37:51;;;;;;;39.13;23.85;;;19.80;57.60;;;;;;4982737;28;20022;-65
2023/12/25 09:40:17;;;;;;;33.25;21.27;;;19.80;57.70;;;;;;4973326;28;20030;-65
2023/12/25 09:42:44;;;;;;;34.38;21.65;;;19.70;57.50;;;;;;4972083;28;20687;-65
2023/12/25 09:45:10;;;;;;;34.45;21.55;;;19.70;57.70;;;;;;4974853;28;20111;-65
2023/12/25 09:47:36;;;;;;;29.13;18.95;;;19.60;57.80;;;;;;4972800;28;20049;-65
2023/12/25 09:50:03;;;;;;;28.77;17.63;;;19.60;58.10;;;;;;4978806;28;20022;-64
2023/12/25 09:52:29;;;;;;;29.80;16.90;;;19.60;58.60;;;;;;4962105;28;20026;-65
2023/12/25 09:54:54;;;;;;;23.73;16.08;;;19.50;58.60;;;;;;4966688;28;20022;-64
2023/12/25 09:57:21;;;;;;;22.30;12.80;;;19.50;59.00;;;;;;4972745;28;20046;-58
2023/12/25 09:59:52;;;;;;;16.10;10.02;;;19.40;61.80;;;;;;4980486;28;20330;-65
2023/12/25 10:02:20;;;;;;;14.73;8.95;;;19.40;61.70;;;;;;4964149;28;20510;-65
2023/12/25 10:04:47;;;;;;;15.68;9.27;;;19.30;62.20;;;;;;4976544;28;20035;-64
2023/12/25 10:07:13;;;;;;;13.63;6.85;;;19.40;61.80;;;;;;4965011;28;20035;-66
2023/12/25 10:09:38;;;;;;;8.50;4.72;;;19.40;62.50;;;;;;4974101;28;20512;-65
2023/12/25 10:12:05;;;;;;;17.27;5.03;;;19.30;61.40;;;;;;4966431;28;20046;-65
2023/12/25 10:14:31;;;;;;;14.75;5.28;;;19.30;62.00;;;;;;4971029;28;20493;-64
2023/12/25 10:16:58;;;;;;;13.55;4.72;;;19.40;62.60;;;;;;4965389;28;20039;-63
2023/12/25 10:19:23;;;;;;;16.50;5.70;;;19.40;61.60;;;;;;4971711;28;20152;-64
2023/12/25 10:21:52;;;;;;;23.38;5.05;;;19.20;61.50;;;;;;4969447;28;20560;-64
2023/12/25 10:24:17;;;;;;;11.20;4.50;;;19.20;61.40;;;;;;4967995;28;20035;-65
2023/12/25 10:26:44;;;;;;;14.73;3.63;;;19.10;61.20;;;;;;4959197;28;20035;-64
2023/12/25 10:29:10;;;;;;;9.45;3.65;;;19.10;61.10;;;;;;4963031;28;20438;-63
2023/12/25 10:31:38;;;;;;;14.45;3.97;;;19.00;61.20;;;;;;4962890;28;20085;-63
2023/12/25 10:34:04;;;;;;;9.10;3.40;;;19.00;61.10;;;;;;4968569;28;20031;-63
2023/12/25 10:36:29;;;;;;;9.50;4.30;;;18.90;61.20;;;;;;4974765;28;20037;-63
2023/12/25 10:38:55;;;;;;;5.55;2.50;;;18.90;61.50;;;;;;4964814;28;20031;-66
2023/12/25 10:41:31;;;;;;;8.65;2.80;;;18.90;61.60;;;;;;4974550;28;20047;-65
2023/12/25 10:43:58;;;;;;;8.52;3.08;;;18.90;61.50;;;;;;4977423;28;20041;-66
2023/12/25 10:46:25;;;;;;;6.45;1.88;;;18.80;61.30;;;;;;4964275;28;20110;-65
2023/12/25 10:48:54;;;;;;;7.60;2.15;;;18.80;62.20;;;;;;4965860;28;20042;-65
2023/12/25 10:51:31;;;;;;;8.75;2.03;;;18.80;61.50;;;;;;4971648;28;20038;-64
2023/12/25 10:54:00;;;;;;;5.43;2.47;;;18.80;62.40;;;;;;4966772;28;20129;-65
2023/12/25 10:56:27;;;;;;;4.22;1.65;;;18.80;62.40;;;;;;4971959;28;20177;-66
2023/12/25 10:58:57;;;;;;;2.53;1.33;;;18.80;63.10;;;;;;4966271;28;20034;-61
2023/12/25 11:01:24;;;;;;;3.83;1.75;;;18.80;63.10;;;;;;4961049;28;20387;-64
2023/12/25 11:03:52;;;;;;;6.35;1.80;;;18.80;63.10;;;;;;4972198;28;20077;-65
2023/12/25 11:06:18;;;;;;;7.47;1.95;;;18.70;63.10;;;;;;4971994;28;20406;-64
2023/12/25 11:08:44;;;;;;;6.10;1.40;;;18.70;63.60;;;;;;4976119;28;20033;-61
2023/12/25 11:11:13;;;;;;;6.85;2.08;;;18.70;63.80;;;;;;4973259;28;20035;-65
2023/12/25 11:13:39;;;;;;;3.25;1.40;;;18.70;63.60;;;;;;4966297;28;20026;-64
2023/12/25 11:16:06;;;;;;;3.67;1.20;;;18.60;63.20;;;;;;4965041;28;20103;-67
2023/12/25 11:18:35;;;;;;;3.38;1.38;;;18.60;63.50;;;;;;4975384;28;20509;-68
2023/12/25 11:21:12;;;;;;;7.22;1.60;;;18.60;63.10;;;;;;4966466;28;20054;-65
2023/12/25 11:23:41;;;;;;;5.45;1.33;;;18.60;62.30;;;;;;4972422;28;20038;-65
2023/12/25 11:26:09;;;;;;;9.23;1.70;;;18.60;62.80;;;;;;4972487;28;20169;-65
2023/12/25 11:28:37;;;;;;;4.57;1.85;;;18.60;63.10;;;;;;4979157;28;20031;-66
2023/12/25 11:31:04;;;;;;;5.93;2.75;;;18.50;62.80;;;;;;4975419;28;20039;-63
2023/12/25 11:33:40;;;;;;;14.75;5.05;;;18.60;63.00;;;;;;4976319;28;20993;-65
2023/12/25 11:36:12;;;;;;;28.05;11.25;;;18.50;62.90;;;;;;4977485;28;20101;-62
2023/12/25 11:38:45;;;;;;;47.55;21.70;;;18.50;62.50;;;;;;4982876;28;21545;-64
2023/12/25 11:41:16;;;;;;;48.42;20.75;;;18.50;63.40;;;;;;4976724;28;20055;-65
2023/12/25 11:43:43;;;;;;;53.30;22.75;;;18.50;62.90;;;;;;4975275;28;20537;-63
2023/12/25 11:46:16;;;;;;;55.13;21.42;;;18.50;63.00;;;;;;4975735;28;20038;-65
2023/12/25 11:48:44;;;;;;;46.80;20.17;;;18.50;63.70;;;;;;4975220;28;20093;-65
2023/12/25 11:51:22;;;;;;;45.60;18.73;;;18.50;64.40;;;;;;4966119;28;20433;-62
2023/12/25 11:53:50;;;;;;;45.72;19.33;;;18.50;64.50;;;;;;4969609;28;20022;-64
2023/12/25 11:56:17;;;;;;;43.05;18.02;;;18.50;64.60;;;;;;4967593;28;20031;-64
2023/12/25 11:58:44;;;;;;;41.92;17.65;;;18.50;64.80;;;;;;4970003;28;20509;-65
2023/12/25 12:01:17;;;;;;;41.40;17.50;;;18.50;64.90;;;;;;4970784;28;20038;-63
2023/12/25 12:03:45;;;;;;;43.58;17.75;;;18.50;64.60;;;;;;4974184;28;20037;-63
2023/12/25 12:06:10;;;;;;;42.17;17.15;;;18.50;65.40;;;;;;4977926;28;20046;-67
2023/12/25 12:08:36;;;;;;;41.97;15.85;;;18.50;64.60;;;;;;4964948;28;20569;-64
2023/12/25 12:11:05;;;;;;;39.55;15.98;;;18.50;65.50;;;;;;4952123;28;20024;-64
2023/12/25 12:13:31;;;;;;;37.47;15.55;;;18.50;64.80;;;;;;4950183;28;20035;-63
2023/12/25 12:15:56;;;;;;;31.00;14.23;;;18.40;65.50;;;;;;4958603;28;20105;-62
2023/12/25 12:18:22;;;;;;;33.15;14.77;;;18.50;66.10;;;;;;4962587;28;20502;-63
2023/12/25 12:20:48;;;;;;;29.88;14.18;;;18.50;65.80;;;;;;4969656;28;20592;-64
2023/12/25 12:23:15;;;;;;;33.03;14.30;;;18.50;66.50;;;;;;4968866;28;20061;-64
2023/12/25 12:25:41;;;;;;;29.42;13.45;;;18.50;66.40;;;;;;4976963;28;20030;-60
2023/12/25 12:28:07;;;;;;;23.98;12.15;;;18.50;67.00;;;;;;4970503;28;20046;-62
2023/12/25 12:30:34;;;;;;;32.13;12.40;;;18.50;66.10;;;;;;4970524;28;20563;-53